Time;durP1;ratioP1;P1;durP2;ratioP2;P2;SDS_P1;SDS_P2;PMS_P1;PMS_P2;Temp;Humidity;BMP_temperature;BMP_pressure;BME280_temperature;BME280_humidity;BME280_pressure;Samples;Min_cycle;Max_cycle;Signal;HPM_P1;HPM_P2
2024/01/09 00:00:15;;;;;;;24.77;12.32;;;;;;;-1.05;91.58;95136.84;5049005;28;20044;-79
2024/01/09 00:02:40;;;;;;;22.73;11.98;;;;;;;-0.82;91.57;95181.47;5031223;28;20028;-79
2024/01/09 00:05:06;;;;;;;23.05;11.90;;;;;;;-1.09;91.72;95142.66;5030794;28;20037;-79
2024/01/09 00:07:32;;;;;;;25.15;12.02;;;;;;;-1.03;92.06;95145.25;5049347;28;20082;-79
2024/01/09 00:09:57;;;;;;;25.15;11.85;;;;;;;-1.10;91.88;95146.25;5031503;28;20039;-79
2024/01/09 00:12:23;;;;;;;27.13;12.23;;;;;;;-1.09;92.03;95151.25;5049017;28;20052;-78
2024/01/09 00:14:48;;;;;;;24.25;12.00;;;;;;;-1.04;91.76;95153.25;5031232;28;20029;-79
2024/01/09 00:17:14;;;;;;;21.35;11.43;;;;;;;-0.82;91.62;95173.66;5031653;28;20053;-79
2024/01/09 00:19:39;;;;;;;24.45;12.23;;;;;;;-0.75;91.60;95185.84;5051085;28;20128;-79
2024/01/09 00:22:05;;;;;;;21.60;11.13;;;;;;;-0.79;91.14;95199.28;5035309;28;20032;-79
2024/01/09 00:24:30;;;;;;;20.50;11.50;;;;;;;-0.96;91.53;95166.84;5052806;28;20116;-79
2024/01/09 00:26:56;;;;;;;24.60;12.65;;;;;;;-0.82;91.69;95183.25;5053047;28;20052;-79
2024/01/09 00:29:21;;;;;;;22.33;11.57;;;;;;;-0.71;91.79;95205.28;5035857;28;20037;-79
2024/01/09 00:31:47;;;;;;;23.10;11.18;;;;;;;-0.81;91.94;95177.84;5053242;28;20037;-79
2024/01/09 00:34:12;;;;;;;21.45;10.95;;;;;;;-0.79;90.98;95196.69;5054616;28;20411;-77
2024/01/09 00:36:44;;;;;;;22.88;11.48;;;;;;;-1.03;91.29;95166.06;5035754;28;20145;-76
2024/01/09 00:39:11;;;;;;;21.73;11.38;;;;;;;-0.90;91.18;95173.84;5038174;28;20037;-76
2024/01/09 00:41:36;;;;;;;22.10;11.85;;;;;;;-0.79;91.16;95216.72;5056993;28;20412;-76
2024/01/09 00:44:02;;;;;;;23.63;11.40;;;;;;;-1.19;91.65;95149.06;5036883;28;20040;-77
2024/01/09 00:46:28;;;;;;;21.80;10.93;;;;;;;-1.23;91.00;95141.88;5054639;28;20041;-77
2024/01/09 00:48:54;;;;;;;22.55;11.25;;;;;;;-1.03;91.65;95188.69;5054856;28;20036;-77
2024/01/09 00:51:19;;;;;;;27.88;11.25;;;;;;;-1.03;91.73;95179.09;5035867;28;20498;-79
2024/01/09 00:53:45;;;;;;;22.25;11.15;;;;;;;-0.91;91.45;95185.28;5028232;28;20033;-79
2024/01/09 00:56:12;;;;;;;19.42;10.98;;;;;;;-0.96;90.87;95179.88;5034774;28;20029;-80
2024/01/09 00:58:37;;;;;;;21.63;11.73;;;;;;;-1.39;91.58;95137.88;5035130;28;20072;-79
2024/01/09 01:01:03;;;;;;;20.75;11.55;;;;;;;-0.84;91.29;95219.13;5034473;28;20029;-80
2024/01/09 01:03:29;;;;;;;23.55;11.75;;;;;;;-0.94;90.82;95190.91;5035004;28;20120;-79
2024/01/09 01:05:55;;;;;;;21.02;11.05;;;;;;;-0.92;91.38;95194.09;5049398;28;20088;-79
2024/01/09 01:08:21;;;;;;;20.13;10.73;;;;;;;-0.97;90.84;95201.69;5034537;28;20067;-80
2024/01/09 01:10:47;;;;;;;20.83;10.65;;;;;;;-0.95;90.34;95214.53;5034366;28;20025;-79
2024/01/09 01:13:13;;;;;;;19.83;10.70;;;;;;;-1.01;89.97;95204.91;5034785;28;20033;-79
2024/01/09 01:15:39;;;;;;;19.60;9.57;;;;;;;-1.00;90.56;95219.53;5034344;28;20025;-79
2024/01/09 01:18:04;;;;;;;19.52;11.02;;;;;;;-1.27;90.83;95180.50;5034636;28;20032;-79
2024/01/09 01:20:30;;;;;;;23.80;10.98;;;;;;;-0.77;90.81;95230.34;5033957;28;20037;-80
2024/01/09 01:22:55;;;;;;;19.25;10.40;;;;;;;-0.98;91.05;95192.28;5034935;28;20479;-79
2024/01/09 01:25:21;;;;;;;20.23;10.80;;;;;;;-1.04;90.53;95195.69;5052422;28;20029;-79
2024/01/09 01:27:46;;;;;;;20.13;10.45;;;;;;;-0.84;90.69;95237.38;5034136;28;20132;-79
2024/01/09 01:30:12;;;;;;;20.52;10.05;;;;;;;-0.91;90.88;95200.88;5034376;28;20039;-79
2024/01/09 01:32:39;;;;;;;22.58;10.27;;;;;;;-0.77;90.47;95219.13;5033807;28;20048;-77
2024/01/09 01:35:05;;;;;;;21.45;10.05;;;;;;;-0.93;90.41;95199.50;5053675;28;20109;-77
2024/01/09 01:37:30;;;;;;;22.63;11.40;;;;;;;-1.11;90.42;95191.50;5035086;28;20079;-77
2024/01/09 01:39:56;;;;;;;21.80;10.73;;;;;;;-1.01;90.59;95205.72;5053304;28;20033;-77
2024/01/09 01:42:21;;;;;;;20.58;10.93;;;;;;;-0.86;90.62;95219.34;5034264;28;20040;-77
2024/01/09 01:44:47;;;;;;;22.52;11.80;;;;;;;-0.88;90.07;95223.94;5052565;28;20142;-77
2024/01/09 01:47:14;;;;;;;21.45;11.15;;;;;;;-0.81;89.96;95245.56;5034138;28;20040;-77
2024/01/09 01:49:39;;;;;;;18.20;9.90;;;;;;;-0.99;89.56;95226.34;5034780;28;20033;-77
2024/01/09 01:52:06;;;;;;;18.95;9.70;;;;;;;-1.10;89.84;95208.72;5034215;28;20033;-77
2024/01/09 01:54:33;;;;;;;18.80;10.23;;;;;;;-0.84;89.82;95247.78;5052466;28;20546;-77
2024/01/09 01:57:00;;;;;;;22.10;10.20;;;;;;;-0.96;89.95;95218.13;5052306;28;20041;-78
2024/01/09 01:59:25;;;;;;;21.70;11.02;;;;;;;-1.26;89.55;95178.69;5052274;28;20110;-78
2024/01/09 02:01:52;;;;;;;18.55;10.00;;;;;;;-0.84;90.03;95255.59;5033477;28;20092;-77
2024/01/09 02:04:19;;;;;;;17.23;9.88;;;;;;;-0.86;89.80;95232.34;5052379;28;20065;-77
2024/01/09 02:06:45;;;;;;;20.27;10.52;;;;;;;-0.72;89.56;95238.34;5052124;28;20063;-77
2024/01/09 02:09:11;;;;;;;20.88;10.98;;;;;;;-0.92;88.96;95206.31;5051908;28;20056;-78
2024/01/09 02:11:37;;;;;;;17.63;9.68;;;;;;;-1.04;89.61;95194.91;5033598;28;20037;-78
2024/01/09 02:14:03;;;;;;;22.92;10.07;;;;;;;-0.75;89.98;95227.50;5051888;28;20025;-78
2024/01/09 02:16:28;;;;;;;17.52;9.05;;;;;;;-0.81;89.48;95218.72;5033827;28;20471;-78
2024/01/09 02:18:54;;;;;;;17.52;8.55;;;;;;;-0.92;90.06;95220.16;5033740;28;20178;-77
2024/01/09 02:21:19;;;;;;;15.50;8.38;;;;;;;-0.95;90.50;95230.94;5033217;28;20098;-78
2024/01/09 02:23:45;;;;;;;17.88;7.82;;;;;;;-0.89;90.17;95222.31;5034097;28;20036;-77
2024/01/09 02:26:16;;;;;;;16.63;8.80;;;;;;;-0.85;90.43;95235.75;5033140;28;20090;-77
2024/01/09 02:28:55;;;;;;;16.10;8.27;;;;;;;-0.89;90.10;95214.50;5021610;28;20040;-78
2024/01/09 02:31:21;;;;;;;16.48;8.10;;;;;;;-1.08;90.20;95201.53;5051405;28;20116;-78
2024/01/09 02:33:47;;;;;;;11.57;7.28;;;;;;;-1.14;90.23;95199.72;5034127;28;20526;-78
2024/01/09 02:36:12;;;;;;;12.27;7.35;;;;;;;-0.93;90.36;95236.75;5051718;28;20029;-77
2024/01/09 02:38:38;;;;;;;15.57;6.57;;;;;;;-0.74;90.72;95239.53;5033466;28;20130;-78
2024/01/09 02:41:05;;;;;;;12.90;6.10;;;;;;;-0.71;90.20;95258.19;5033708;28;20096;-79
2024/01/09 02:43:30;;;;;;;7.75;4.57;;;;;;;-1.14;89.96;95199.72;5032365;28;20187;-80
2024/01/09 02:45:56;;;;;;;9.75;4.82;;;;;;;-0.83;90.18;95247.56;5025952;28;20562;-81
2024/01/09 02:48:21;;;;;;;8.38;4.82;;;;;;;-1.13;90.41;95201.31;5022470;28;20507;-81
2024/01/09 02:50:47;;;;;;;12.65;5.93;;;;;;;-0.84;90.63;95229.56;5032702;28;20029;-81
2024/01/09 02:53:12;;;;;;;7.05;4.30;;;;;;;-0.86;89.88;95203.72;5034609;28;20379;-81
2024/01/09 02:55:38;;;;;;;9.68;4.68;;;;;;;-1.22;89.59;95148.69;5035051;28;20539;-82
2024/01/09 02:58:03;;;;;;;6.95;4.32;;;;;;;-0.95;89.28;95196.31;5034196;28;20037;-82
2024/01/09 03:00:30;;;;;;;9.18;4.18;;;;;;;-0.64;89.39;95239.94;5033619;28;20345;-82
2024/01/09 03:02:56;;;;;;;6.53;4.05;;;;;;;-0.49;89.37;95259.56;5035126;28;20091;-82
2024/01/09 03:05:21;;;;;;;8.85;4.72;;;;;;;-0.50;89.68;95238.91;5053030;28;20036;-83
2024/01/09 03:07:47;;;;;;;10.60;5.32;;;;;;;-0.84;89.35;95178.25;5053305;28;20068;-83
2024/01/09 03:10:13;;;;;;;11.30;5.97;;;;;;;-0.52;88.81;95254.75;5035325;28;20116;-83
2024/01/09 03:12:38;;;;;;;7.43;4.90;;;;;;;-1.18;88.11;95162.88;5035571;28;20037;-83
2024/01/09 03:15:04;;;;;;;12.10;6.32;;;;;;;-0.81;88.61;95195.28;5036205;28;20127;-83
2024/01/09 03:17:30;;;;;;;13.52;7.22;;;;;;;-0.54;88.47;95225.50;5054344;28;20063;-83
2024/01/09 03:19:55;;;;;;;16.70;6.88;;;;;;;-1.00;87.82;95144.84;5054208;28;20148;-84
2024/01/09 03:22:21;;;;;;;17.48;8.55;;;;;;;-0.57;86.96;95207.66;5055053;28;20028;-84
2024/01/09 03:24:46;;;;;;;19.00;7.78;;;;;;;-0.47;87.54;95231.50;5036659;28;20033;-83
2024/01/09 03:27:12;;;;;;;14.90;7.32;;;;;;;-0.84;87.53;95193.88;5036313;28;20052;-83
2024/01/09 03:29:37;;;;;;;14.45;7.65;;;;;;;-0.42;87.51;95243.91;5036015;28;20033;-83
2024/01/09 03:32:04;;;;;;;15.70;7.60;;;;;;;-1.11;88.08;95162.88;5035243;28;20035;-83
2024/01/09 03:34:29;;;;;;;13.38;7.07;;;;;;;-1.09;88.17;95155.66;5053846;28;20033;-83
2024/01/09 03:36:55;;;;;;;17.83;8.45;;;;;;;-0.22;87.51;95286.34;5055265;28;20047;-83
2024/01/09 03:39:20;;;;;;;14.30;7.57;;;;;;;-0.43;87.16;95284.00;5053869;28;20033;-83
2024/01/09 03:41:46;;;;;;;20.27;8.77;;;;;;;-1.52;87.47;95135.25;5036408;28;20084;-83
2024/01/09 03:44:15;;;;;;;15.90;7.85;;;;;;;-0.63;88.24;95275.41;5054108;28;20029;-83
2024/01/09 03:46:41;;;;;;;15.88;7.97;;;;;;;-0.85;88.61;95257.38;5054563;28;20043;-83
2024/01/09 03:49:06;;;;;;;14.07;7.80;;;;;;;-0.98;88.58;95246.16;5054214;28;20084;-83
2024/01/09 03:51:32;;;;;;;17.63;8.18;;;;;;;-0.99;88.57;95247.19;5053692;28;20033;-83
2024/01/09 03:53:57;;;;;;;15.70;7.30;;;;;;;-1.39;88.46;95207.31;5055096;28;20104;-83
2024/01/09 03:56:24;;;;;;;15.65;7.90;;;;;;;-1.09;88.67;95249.38;5041891;28;20041;-82
2024/01/09 03:58:50;;;;;;;20.77;7.13;;;;;;;-0.98;88.15;95261.78;5059679;28;20111;-82
2024/01/09 04:01:16;;;;;;;19.50;7.28;;;;;;;-0.83;88.59;95276.19;5058233;28;20037;-82
2024/01/09 04:03:41;;;;;;;13.18;6.82;;;;;;;-0.57;87.68;95311.88;5040921;28;20041;-82
2024/01/09 04:06:07;;;;;;;15.40;7.22;;;;;;;-1.08;87.48;95253.56;5057760;28;20087;-82
2024/01/09 04:08:32;;;;;;;15.18;7.47;;;;;;;-0.82;87.24;95284.81;5055182;28;20041;-82
2024/01/09 04:10:58;;;;;;;17.80;7.30;;;;;;;-1.05;87.22;95271.38;5028604;28;20112;-82
2024/01/09 04:13:23;;;;;;;14.48;6.63;;;;;;;-0.82;87.75;95290.00;5055788;28;20044;-82
2024/01/09 04:15:49;;;;;;;14.40;7.22;;;;;;;-1.04;86.96;95280.78;5040014;28;20036;-82
2024/01/09 04:18:14;;;;;;;13.65;6.45;;;;;;;-0.58;87.07;95340.72;5058177;28;20072;-82
2024/01/09 04:20:40;;;;;;;13.82;6.65;;;;;;;-0.82;87.50;95323.88;5040160;28;20048;-82
2024/01/09 04:23:06;;;;;;;16.02;7.35;;;;;;;-1.20;87.00;95255.94;5039712;28;20029;-81
2024/01/09 04:25:32;;;;;;;13.63;7.00;;;;;;;-0.82;86.90;95292.63;5058295;28;20061;-82
2024/01/09 04:27:58;;;;;;;15.45;7.78;;;;;;;-0.63;86.59;95328.31;5058706;28;20163;-82
2024/01/09 04:30:24;;;;;;;14.95;7.28;;;;;;;-0.85;85.39;95285.22;5058392;28;20138;-81
2024/01/09 04:32:50;;;;;;;17.27;7.20;;;;;;;-0.64;85.83;95310.25;5039508;28;20028;-82
2024/01/09 04:35:16;;;;;;;12.18;6.22;;;;;;;-0.56;85.54;95318.69;5058349;28;20045;-82
2024/01/09 04:37:41;;;;;;;12.32;5.90;;;;;;;-0.45;84.74;95344.13;5040191;28;20119;-81
2024/01/09 04:40:07;;;;;;;10.88;6.35;;;;;;;-0.59;84.19;95319.06;5040464;28;20047;-82
2024/01/09 04:42:33;;;;;;;14.65;6.60;;;;;;;-0.56;84.15;95307.47;5058101;28;20051;-81
2024/01/09 04:44:58;;;;;;;13.30;5.10;;;;;;;-0.89;83.84;95255.38;5057927;28;20442;-81
2024/01/09 04:47:24;;;;;;;13.52;4.75;;;;;;;-0.53;83.41;95297.41;5057741;28;20598;-81
2024/01/09 04:49:49;;;;;;;10.27;3.60;;;;;;;-0.12;82.62;95369.34;5040237;28;20055;-81
2024/01/09 04:52:15;;;;;;;7.57;3.47;;;;;;;-0.15;81.16;95372.34;5057294;28;20218;-81
2024/01/09 04:54:40;;;;;;;5.25;2.72;;;;;;;-0.65;80.30;95296.44;5039089;28;20032;-81
2024/01/09 04:57:06;;;;;;;5.53;3.17;;;;;;;-0.27;80.78;95353.94;5039680;28;20044;-81
2024/01/09 04:59:32;;;;;;;4.15;3.20;;;;;;;-0.30;80.00;95343.91;5057372;28;20194;-81
2024/01/09 05:02:01;;;;;;;2.80;2.50;;;;;;;-0.33;79.61;95336.50;5039486;28;20035;-81
2024/01/09 05:04:30;;;;;;;6.82;2.55;;;;;;;-0.96;79.62;95218.13;5057951;28;20037;-80
2024/01/09 05:06:56;;;;;;;6.22;3.00;;;;;;;-0.35;79.04;95298.63;5054501;28;20148;-80
2024/01/09 05:09:22;;;;;;;8.20;3.10;;;;;;;-0.07;79.56;95354.69;5055135;28;20033;-81
2024/01/09 05:11:47;;;;;;;10.63;3.75;;;;;;;-0.15;79.27;95323.63;5054410;28;20029;-80
2024/01/09 05:14:13;;;;;;;10.38;3.60;;;;;;;-0.21;78.76;95321.03;5034956;28;20170;-81
2024/01/09 05:16:38;;;;;;;7.60;2.53;;;;;;;-0.14;77.52;95350.50;5053336;28;20104;-82
2024/01/09 05:19:04;;;;;;;7.70;3.10;;;;;;;-0.18;78.47;95349.31;5034246;28;20062;-81
2024/01/09 05:21:30;;;;;;;7.13;2.80;;;;;;;-0.75;79.04;95248.34;5034007;28;20041;-82
2024/01/09 05:23:56;;;;;;;11.68;3.72;;;;;;;-0.54;79.64;95285.44;5046252;28;20507;-82
2024/01/09 05:26:22;;;;;;;11.48;3.55;;;;;;;-0.49;79.56;95303.03;5044320;28;20092;-82
2024/01/09 05:28:47;;;;;;;8.30;3.60;;;;;;;-0.43;79.28;95304.84;5028886;28;20025;-80
2024/01/09 05:31:13;;;;;;;6.95;3.75;;;;;;;0.08;79.91;95377.94;5039560;28;20100;-81
2024/01/09 05:33:39;;;;;;;7.72;3.53;;;;;;;-0.68;79.71;95262.16;5037447;28;20574;-82
2024/01/09 05:36:06;;;;;;;7.78;4.10;;;;;;;-0.36;80.13;95310.84;5024229;28;20048;-83
2024/01/09 05:38:32;;;;;;;8.57;3.75;;;;;;;-0.65;79.27;95270.38;5049499;28;20037;-82
2024/01/09 05:40:57;;;;;;;9.30;3.45;;;;;;;-0.21;78.63;95355.72;5048364;28;20032;-82
2024/01/09 05:43:23;;;;;;;3.92;2.60;;;;;;;-0.70;76.44;95287.63;5024422;28;20514;-81
2024/01/09 05:45:48;;;;;;;4.30;2.70;;;;;;;-0.57;76.60;95295.44;5038490;28;20044;-82
2024/01/09 05:48:15;;;;;;;9.15;2.80;;;;;;;-0.53;76.60;95286.19;5043267;28;20047;-82
2024/01/09 05:50:41;;;;;;;12.68;3.28;;;;;;;0.15;76.81;95407.44;5016680;28;20048;-83
2024/01/09 05:53:08;;;;;;;20.20;3.88;;;;;;;-1.35;75.49;95198.09;5031328;28;20072;-83
2024/01/09 05:55:33;;;;;;;8.18;3.40;;;;;;;0.05;76.09;95414.88;5010401;28;20130;-82
2024/01/09 05:57:59;;;;;;;7.55;3.53;;;;;;;-0.35;75.38;95363.75;5021126;28;20513;-80
2024/01/09 06:00:24;;;;;;;8.70;3.88;;;;;;;-0.23;76.00;95389.00;5029064;28;20128;-81
2024/01/09 06:02:51;;;;;;;6.55;3.70;;;;;;;-0.34;75.74;95365.38;5024756;28;20041;-81
2024/01/09 06:05:17;;;;;;;8.50;3.35;;;;;;;-0.15;75.75;95403.63;5041058;28;20025;-82
2024/01/09 06:07:42;;;;;;;6.40;3.53;;;;;;;-0.34;75.91;95389.63;5025567;28;20048;-82
2024/01/09 06:10:08;;;;;;;5.22;3.72;;;;;;;-0.29;75.69;95428.09;5024830;28;20029;-81
2024/01/09 06:12:34;;;;;;;7.45;3.55;;;;;;;-0.01;76.05;95481.69;5018290;28;20040;-83
2024/01/09 06:15:00;;;;;;;5.70;3.60;;;;;;;-0.21;76.21;95436.53;5031474;28;20044;-81
2024/01/09 06:17:25;;;;;;;4.78;3.13;;;;;;;-0.61;76.48;95396.59;5024153;28;20124;-80
2024/01/09 06:19:51;;;;;;;7.25;4.50;;;;;;;-1.73;75.73;95213.44;5044647;28;20067;-79
2024/01/09 06:22:17;;;;;;;8.23;3.67;;;;;;;-0.44;75.84;95460.38;5006776;28;20902;-81
2024/01/09 06:24:42;;;;;;;6.20;4.00;;;;;;;-0.85;76.88;95444.88;5024728;28;20119;-81
2024/01/09 06:27:08;;;;;;;8.57;4.38;;;;;;;-0.57;76.56;95496.81;5011978;28;20079;-80
2024/01/09 06:29:33;;;;;;;8.38;4.63;;;;;;;-0.33;77.58;95521.53;5027674;28;20585;-81
2024/01/09 06:31:59;;;;;;;10.57;5.18;;;;;;;-0.37;77.03;95515.09;5006900;28;20132;-80
2024/01/09 06:34:24;;;;;;;9.27;3.95;;;;;;;-0.41;77.12;95513.91;5025867;28;20120;-80
2024/01/09 06:36:50;;;;;;;8.75;4.80;;;;;;;-0.40;77.15;95518.13;5004625;28;20037;-80
2024/01/09 06:39:16;;;;;;;8.45;4.22;;;;;;;-0.20;77.06;95578.09;5032369;28;20095;-80
2024/01/09 06:41:42;;;;;;;9.10;4.95;;;;;;;-0.14;76.49;95585.94;5048194;28;20044;-80
2024/01/09 06:44:08;;;;;;;7.35;4.85;;;;;;;-0.69;76.55;95537.47;5023101;28;20063;-80
2024/01/09 06:46:33;;;;;;;8.25;4.82;;;;;;;-0.50;76.93;95544.53;5040873;28;20036;-80
2024/01/09 06:48:59;;;;;;;13.10;5.47;;;;;;;-0.37;77.09;95577.63;5039603;28;20040;-79
2024/01/09 06:51:25;;;;;;;9.63;5.15;;;;;;;-0.42;76.93;95564.41;5043494;28;20045;-79
2024/01/09 06:53:51;;;;;;;10.23;5.38;;;;;;;-0.72;77.32;95514.41;5021682;28;20040;-79
2024/01/09 06:56:17;;;;;;;18.77;6.65;;;;;;;-0.34;76.94;95581.66;5039900;28;20063;-79
2024/01/09 06:58:45;;;;;;;16.38;6.85;;;;;;;-0.47;77.28;95556.38;5022383;28;20068;-79
2024/01/09 07:01:10;;;;;;;13.60;6.15;;;;;;;-0.07;77.57;95622.44;5026630;28;20076;-78
2024/01/09 07:03:36;;;;;;;8.32;5.53;;;;;;;-0.59;77.19;95571.75;5037721;28;20067;-80
2024/01/09 07:06:02;;;;;;;12.27;5.95;;;;;;;-0.27;76.97;95626.78;5025043;28;20033;-78
2024/01/09 07:08:28;;;;;;;8.40;5.57;;;;;;;-0.84;77.50;95552.44;5032363;28;20518;-79
2024/01/09 07:10:54;;;;;;;11.50;6.82;;;;;;;-0.47;77.20;95617.09;5028560;28;20036;-80
2024/01/09 07:13:19;;;;;;;18.38;6.80;;;;;;;-0.46;77.15;95642.13;5000401;28;20130;-79
2024/01/09 07:15:45;;;;;;;8.27;5.25;;;;;;;-0.69;78.23;95602.59;4997099;28;20040;-79
2024/01/09 07:18:10;;;;;;;16.70;6.07;;;;;;;-0.52;77.86;95640.31;4994489;28;20090;-79
2024/01/09 07:20:37;;;;;;;9.27;5.70;;;;;;;-0.27;77.51;95647.66;5013062;28;20150;-79
2024/01/09 07:23:02;;;;;;;10.05;6.00;;;;;;;-1.11;77.27;95528.06;4991108;28;20120;-81
2024/01/09 07:25:28;;;;;;;12.75;6.45;;;;;;;-0.93;77.02;95566.59;4994456;28;20071;-81
2024/01/09 07:27:54;;;;;;;9.95;5.75;;;;;;;-1.13;76.20;95540.44;5018283;28;20045;-81
2024/01/09 07:30:19;;;;;;;10.65;6.03;;;;;;;-0.79;76.17;95617.75;5028613;28;20143;-81
2024/01/09 07:32:45;;;;;;;10.73;6.43;;;;;;;-0.42;76.85;95656.41;5039471;28;20024;-80
2024/01/09 07:35:11;;;;;;;10.88;6.22;;;;;;;-1.41;76.48;95503.25;5015373;28;20040;-80
2024/01/09 07:37:36;;;;;;;10.63;6.13;;;;;;;-0.94;76.20;95585.81;5037871;28;20033;-81
2024/01/09 07:40:05;;;;;;;12.38;6.35;;;;;;;-1.44;76.50;95504.44;5038282;28;20038;-80
2024/01/09 07:42:31;;;;;;;14.30;6.28;;;;;;;-0.79;76.34;95639.38;5039005;28;20089;-81
2024/01/09 07:44:56;;;;;;;10.90;6.18;;;;;;;-1.05;76.74;95605.38;5019739;28;20033;-80
2024/01/09 07:47:22;;;;;;;11.15;6.78;;;;;;;-0.69;77.13;95646.88;5029180;28;20044;-80
2024/01/09 07:49:48;;;;;;;20.45;7.00;;;;;;;-1.02;76.50;95618.00;5014740;28;20743;-80
2024/01/09 07:52:13;;;;;;;14.05;6.82;;;;;;;-0.96;76.92;95622.44;5038994;28;20222;-80
2024/01/09 07:54:43;;;;;;;17.55;6.65;;;;;;;-0.64;76.80;95647.09;5020475;28;20102;-81
2024/01/09 07:57:08;;;;;;;14.45;6.97;;;;;;;-1.28;76.32;95578.78;5042385;28;20032;-81
2024/01/09 07:59:34;;;;;;;10.55;6.47;;;;;;;-0.99;76.42;95622.03;5032532;28;20032;-82
2024/01/09 08:02:01;;;;;;;12.52;6.50;;;;;;;-0.89;76.76;95671.97;5028971;28;20411;-82
2024/01/09 08:04:26;;;;;;;10.00;6.00;;;;;;;-1.08;76.70;95623.19;5025153;28;20044;-81
2024/01/09 08:06:52;;;;;;;11.65;6.63;;;;;;;-1.46;76.67;95581.09;5039755;28;20499;-82
2024/01/09 08:09:18;;;;;;;11.73;7.25;;;;;;;-0.98;77.99;95634.84;5039361;28;20429;-82
2024/01/09 08:11:47;;;;;;;11.18;6.72;;;;;;;-0.76;76.30;95679.06;5008515;28;20578;-79
2024/01/09 08:14:14;;;;;;;16.73;6.38;;;;;;;-0.75;76.32;95691.06;4995005;28;20099;-80
2024/01/09 08:16:40;;;;;;;11.20;5.93;;;;;;;-1.69;76.21;95522.31;4997358;28;20044;-80
2024/01/09 08:19:09;;;;;;;15.30;6.32;;;;;;;-0.69;75.72;95700.75;5009061;28;20111;-81
2024/01/09 08:21:35;;;;;;;10.98;5.95;;;;;;;-0.83;75.07;95689.41;5003491;28;20070;-80
2024/01/09 08:24:02;;;;;;;12.70;5.82;;;;;;;-0.60;74.82;95710.00;5006280;28;20114;-80
2024/01/09 08:26:28;;;;;;;12.18;6.35;;;;;;;-0.58;74.85;95714.03;5023136;28;20140;-81
2024/01/09 08:28:55;;;;;;;9.77;5.57;;;;;;;-1.08;74.77;95616.19;5007293;28;20044;-80
2024/01/09 08:31:21;;;;;;;12.82;5.65;;;;;;;-0.75;74.78;95668.44;5024484;28;20033;-81
2024/01/09 08:33:47;;;;;;;12.65;6.15;;;;;;;-0.61;75.36;95672.72;5030065;28;20063;-79
2024/01/09 08:36:14;;;;;;;11.98;5.60;;;;;;;-0.48;75.34;95683.25;5008586;28;20044;-80
2024/01/09 08:38:39;;;;;;;8.95;5.32;;;;;;;-0.95;74.80;95602.44;4990287;28;20040;-80
2024/01/09 08:41:05;;;;;;;10.23;4.88;;;;;;;-0.58;74.49;95669.75;5011263;28;20037;-80
2024/01/09 08:43:31;;;;;;;9.73;5.35;;;;;;;-0.24;73.43;95739.31;5015540;28;20047;-80
2024/01/09 08:45:56;;;;;;;10.68;5.22;;;;;;;-0.66;73.73;95674.31;5034431;28;20041;-79
2024/01/09 08:48:23;;;;;;;11.43;5.47;;;;;;;-1.11;73.97;95621.75;5030431;28;20065;-79
2024/01/09 08:50:49;;;;;;;10.52;5.75;;;;;;;-0.76;74.21;95653.03;5040459;28;20025;-80
2024/01/09 08:53:15;;;;;;;13.93;6.72;;;;;;;-1.00;73.96;95600.41;5041656;28;20036;-78
2024/01/09 08:55:41;;;;;;;11.13;5.43;;;;;;;-0.54;72.24;95723.09;5020924;28;20356;-80
2024/01/09 08:58:06;;;;;;;8.60;4.05;;;;;;;-0.86;71.64;95671.59;5022760;28;20124;-78
2024/01/09 09:00:32;;;;;;;15.23;4.75;;;;;;;-0.70;72.94;95675.69;5038985;28;20122;-79
2024/01/09 09:02:59;;;;;;;10.35;5.93;;;;;;;-0.77;72.14;95685.28;5011323;28;20032;-80
2024/01/09 09:05:24;;;;;;;9.07;4.65;;;;;;;-0.87;72.59;95668.19;5033191;28;20115;-79
2024/01/09 09:07:50;;;;;;;15.68;5.10;;;;;;;-0.62;72.48;95720.63;5018218;28;20419;-78
2024/01/09 09:10:16;;;;;;;14.93;5.57;;;;;;;-0.70;73.06;95689.53;5022378;28;20030;-80
2024/01/09 09:12:42;;;;;;;9.57;5.28;;;;;;;-0.43;73.04;95708.72;5021300;28;20036;-81
2024/01/09 09:15:08;;;;;;;12.73;5.78;;;;;;;-0.28;72.82;95743.28;5035258;28;20075;-80
2024/01/09 09:17:35;;;;;;;18.70;5.80;;;;;;;-0.81;73.13;95640.56;5021149;28;20087;-80
2024/01/09 09:20:02;;;;;;;15.90;7.30;;;;;;;0.04;73.24;95748.84;5022207;28;20037;-81
2024/01/09 09:22:29;;;;;;;15.10;6.32;;;;;;;-0.27;71.68;95720.63;5042634;28;20060;-81
2024/01/09 09:24:55;;;;;;;10.93;5.78;;;;;;;-0.03;71.51;95738.41;5021376;28;20857;-81
2024/01/09 09:27:21;;;;;;;11.90;5.63;;;;;;;-0.96;71.45;95595.63;5024121;28;20055;-80
2024/01/09 09:29:47;;;;;;;14.25;5.18;;;;;;;-0.05;71.55;95750.81;5042899;28;20037;-81
2024/01/09 09:32:12;;;;;;;11.73;5.78;;;;;;;-0.23;71.68;95737.50;5027142;28;20090;-81
2024/01/09 09:34:40;;;;;;;17.60;5.00;;;;;;;0.08;71.93;95750.09;5043740;28;20075;-81
2024/01/09 09:37:06;;;;;;;9.98;4.90;;;;;;;-0.15;70.84;95719.88;5009240;28;20032;-81
2024/01/09 09:39:32;;;;;;;8.05;3.85;;;;;;;-0.31;70.21;95677.72;5021504;28;20110;-81
2024/01/09 09:41:58;;;;;;;8.60;4.80;;;;;;;-0.28;69.80;95705.97;5024755;28;20584;-81
2024/01/09 09:44:25;;;;;;;12.55;6.20;;;;;;;-0.60;70.25;95702.19;5048696;28;20048;-79
2024/01/09 09:46:51;;;;;;;11.90;6.13;;;;;;;-0.32;71.60;95752.50;5026366;28;20037;-77
2024/01/09 09:49:24;;;;;;;12.60;7.03;;;;;;;-0.03;72.03;95748.81;5031898;28;20044;-79
2024/01/09 09:51:56;;;;;;;10.07;5.63;;;;;;;-0.09;71.85;95723.53;5033427;28;20041;-80
2024/01/09 09:54:23;;;;;;;9.30;5.82;;;;;;;-0.33;69.98;95666.66;5004205;28;20045;-80
2024/01/09 09:56:49;;;;;;;10.95;5.18;;;;;;;0.19;70.12;95734.66;5026486;28;20041;-79
2024/01/09 09:59:15;;;;;;;11.05;4.80;;;;;;;-0.30;69.33;95681.91;5015669;28;20063;-79
2024/01/09 10:01:42;;;;;;;9.45;4.70;;;;;;;-0.05;68.86;95706.50;5030610;28;20038;-79
2024/01/09 10:04:46;;;;;;;10.85;4.88;;;;;;;-0.07;69.57;95727.53;5031428;28;20706;-80
2024/01/09 10:07:14;;;;;;;8.60;4.57;;;;;;;-0.14;69.65;95710.25;5034975;28;20025;-80
2024/01/09 10:09:48;;;;;;;10.70;5.50;;;;;;;-0.20;70.34;95675.34;5024726;28;20694;-79
2024/01/09 10:12:14;;;;;;;10.68;5.18;;;;;;;0.29;70.55;95724.69;5028400;28;20955;-80
2024/01/09 10:15:12;;;;;;;8.60;5.10;;;;;;;0.07;68.88;95735.44;5027081;28;20558;-79
2024/01/09 10:17:39;;;;;;;10.32;5.43;;;;;;;0.08;69.16;95724.78;5023176;28;20231;-79
2024/01/09 10:20:11;;;;;;;11.30;5.32;;;;;;;-0.32;69.94;95666.47;5008747;28;20034;-79
2024/01/09 10:22:38;;;;;;;10.25;5.38;;;;;;;0.10;68.76;95727.22;5017321;28;20041;-79
2024/01/09 10:25:12;;;;;;;22.60;5.50;;;;;;;-0.09;68.37;95713.09;5005943;28;20044;-79
2024/01/09 10:27:39;;;;;;;13.52;5.90;;;;;;;-0.63;69.28;95638.28;5021247;28;20515;-79
2024/01/09 10:30:07;;;;;;;17.38;7.63;;;;;;;-0.48;70.55;95670.22;5041275;28;20032;-80
2024/01/09 10:32:33;;;;;;;12.15;6.20;;;;;;;-0.20;70.24;95734.50;5022201;28;20042;-79
2024/01/09 10:35:00;;;;;;;24.67;6.70;;;;;;;-1.17;69.66;95592.09;5042239;28;20037;-80
2024/01/09 10:37:26;;;;;;;13.32;6.78;;;;;;;0.03;70.13;95749.84;5029270;28;20462;-80
2024/01/09 10:40:00;;;;;;;12.55;6.20;;;;;;;-0.68;69.21;95697.94;5031246;28;20120;-79
2024/01/09 10:42:27;;;;;;;15.10;6.63;;;;;;;-0.98;70.45;95653.06;5025482;28;20047;-80
2024/01/09 10:44:53;;;;;;;22.75;7.80;;;;;;;-0.24;70.90;95756.75;5046592;28;20064;-80
2024/01/09 10:47:20;;;;;;;14.98;6.90;;;;;;;-0.50;69.85;95733.94;5047927;28;20078;-81
2024/01/09 10:49:46;;;;;;;13.60;7.13;;;;;;;-0.44;70.20;95770.44;5041779;28;20028;-81
2024/01/09 10:52:16;;;;;;;12.00;6.25;;;;;;;-1.23;69.94;95681.34;5063818;28;20013;-79
2024/01/09 10:54:46;;;;;;;19.08;7.78;;;;;;;-0.99;70.00;95789.44;5031196;28;20025;-80
2024/01/09 10:57:16;;;;;;;15.77;7.82;;;;;;;-1.00;71.15;95780.03;5044484;28;20029;-78
2024/01/09 10:59:46;;;;;;;18.43;8.30;;;;;;;-1.12;71.11;95770.31;5030078;28;20454;-78
2024/01/09 11:02:16;;;;;;;16.20;7.72;;;;;;;-1.07;71.19;95760.97;5027716;28;20096;-84
2024/01/09 11:04:44;;;;;;;17.37;7.77;;;;;;;-1.66;70.37;95718.75;5030217;28;20032;-82
2024/01/09 11:07:17;;;;;;;17.20;7.82;;;;;;;-1.07;71.78;95807.00;5028280;28;20037;-84
2024/01/09 11:09:47;;;;;;;20.17;9.50;;;;;;;-1.28;72.58;95792.16;5035714;28;20547;-82
2024/01/09 11:12:23;;;;;;;19.00;7.97;;;;;;;-3.70;72.06;95407.41;5035964;28;20040;-83
2024/01/09 11:14:57;;;;;;;16.73;8.23;;;;;;;-3.70;71.13;95395.25;5016936;28;20812;-85
2024/01/09 11:17:41;;;;;;;;;;;;;;;;;;;;;
2024/01/09 11:20:14;;;;;;;17.30;8.23;;;;;;;-3.15;72.02;95489.91;5048096;28;20145;-84
2024/01/09 11:25:24;;;;;;;17.70;8.60;;;;;;;-2.80;70.26;95519.44;4303532;26;20579;-83